sensor_id;sensor_type;location;lat;lon;timestamp;temperature;humidity
6164;DHT22;3114;48.362;10.994;2023-06-14T00:00:47;17.10;99.90
6164;DHT22;3114;48.362;10.994;2023-06-14T00:03:14;17.00;99.90
6164;DHT22;3114;48.362;10.994;2023-06-14T00:05:43;17.00;99.90
6164;DHT22;3114;48.362;10.994;2023-06-14T00:08:12;17.10;99.90
6164;DHT22;3114;48.362;10.994;2023-06-14T00:10:41;17.10;99.90
6164;DHT22;3114;48.362;10.994;2023-06-14T00:13:08;17.00;99.90
6164;DHT22;3114;48.362;10.994;2023-06-14T00:15:35;16.70;99.90
6164;DHT22;3114;48.362;10.994;2023-06-14T00:18:03;16.60;99.90
6164;DHT22;3114;48.362;10.994;2023-06-14T00:20:31;16.60;99.90
6164;DHT22;3114;48.362;10.994;2023-06-14T00:22:59;16.50;99.90
6164;DHT22;3114;48.362;10.994;2023-06-14T00:25:26;16.40;99.90
6164;DHT22;3114;48.362;10.994;2023-06-14T00:27:55;16.30;99.90
6164;DHT22;3114;48.362;10.994;2023-06-14T00:30:22;16.20;99.90
6164;DHT22;3114;48.362;10.994;2023-06-14T00:32:49;16.10;99.90
6164;DHT22;3114;48.362;10.994;2023-06-14T00:35:17;16.00;99.90
6164;DHT22;3114;48.362;10.994;2023-06-14T00:37:44;16.00;99.90
6164;DHT22;3114;48.362;10.994;2023-06-14T00:40:11;15.90;99.90
6164;DHT22;3114;48.362;10.994;2023-06-14T00:42:38;15.80;99.90
6164;DHT22;3114;48.362;10.994;2023-06-14T00:45:07;15.80;99.90
6164;DHT22;3114;48.362;10.994;2023-06-14T00:47:35;15.90;99.90
6164;DHT22;3114;48.362;10.994;2023-06-14T00:50:06;16.00;99.90
6164;DHT22;3114;48.362;10.994;2023-06-14T00:52:34;16.10;99.90
6164;DHT22;3114;48.362;10.994;2023-06-14T00:55:02;16.20;99.90
6164;DHT22;3114;48.362;10.994;2023-06-14T00:57:29;16.30;99.90
6164;DHT22;3114;48.362;10.994;2023-06-14T00:59:56;16.30;99.90
6164;DHT22;3114;48.362;10.994;2023-06-14T01:02:24;16.30;99.90
6164;DHT22;3114;48.362;10.994;2023-06-14T01:04:51;16.30;99.90
6164;DHT22;3114;48.362;10.994;2023-06-14T01:07:25;16.20;99.90
6164;DHT22;3114;48.362;10.994;2023-06-14T01:10:05;16.10;99.90
6164;DHT22;3114;48.362;10.994;2023-06-14T01:12:39;16.00;99.90
6164;DHT22;3114;48.362;10.994;2023-06-14T01:15:13;16.10;99.90
6164;DHT22;3114;48.362;10.994;2023-06-14T01:17:41;16.10;99.90
6164;DHT22;3114;48.362;10.994;2023-06-14T01:20:12;16.10;99.90
6164;DHT22;3114;48.362;10.994;2023-06-14T01:22:50;16.10;99.90
6164;DHT22;3114;48.362;10.994;2023-06-14T01:25:17;16.00;99.90
6164;DHT22;3114;48.362;10.994;2023-06-14T01:27:47;16.00;99.90
6164;DHT22;3114;48.362;10.994;2023-06-14T01:30:15;16.00;99.90
6164;DHT22;3114;48.362;10.994;2023-06-14T01:32:43;15.90;99.90
6164;DHT22;3114;48.362;10.994;2023-06-14T01:35:10;15.70;99.90
6164;DHT22;3114;48.362;10.994;2023-06-14T01:37:38;15.60;99.90
6164;DHT22;3114;48.362;10.994;2023-06-14T01:40:09;15.50;99.90
6164;DHT22;3114;48.362;10.994;2023-06-14T01:42:37;15.40;99.90
6164;DHT22;3114;48.362;10.994;2023-06-14T01:45:07;15.50;99.90
6164;DHT22;3114;48.362;10.994;2023-06-14T01:47:34;15.50;99.90
6164;DHT22;3114;48.362;10.994;2023-06-14T01:50:02;15.40;99.90
6164;DHT22;3114;48.362;10.994;2023-06-14T01:52:29;15.30;99.90
6164;DHT22;3114;48.362;10.994;2023-06-14T01:54:56;15.50;99.90
6164;DHT22;3114;48.362;10.994;2023-06-14T01:57:25;15.60;99.90
6164;DHT22;3114;48.362;10.994;2023-06-14T01:59:52;15.50;99.90
6164;DHT22;3114;48.362;10.994;2023-06-14T02:02:19;15.50;99.90
6164;DHT22;3114;48.362;10.994;2023-06-14T02:04:46;15.30;99.90
6164;DHT22;3114;48.362;10.994;2023-06-14T02:07:14;15.20;99.90
6164;DHT22;3114;48.362;10.994;2023-06-14T02:09:41;15.20;99.90
6164;DHT22;3114;48.362;10.994;2023-06-14T02:12:09;15.00;99.90
6164;DHT22;3114;48.362;10.994;2023-06-14T02:14:37;15.10;99.90
6164;DHT22;3114;48.362;10.994;2023-06-14T02:17:05;15.00;99.90
6164;DHT22;3114;48.362;10.994;2023-06-14T02:19:32;15.00;99.90
6164;DHT22;3114;48.362;10.994;2023-06-14T02:21:59;15.20;99.90
6164;DHT22;3114;48.362;10.994;2023-06-14T02:24:26;15.30;99.90
6164;DHT22;3114;48.362;10.994;2023-06-14T02:26:53;15.20;99.90
6164;DHT22;3114;48.362;10.994;2023-06-14T02:29:20;15.00;99.90
6164;DHT22;3114;48.362;10.994;2023-06-14T02:31:48;14.90;99.90
6164;DHT22;3114;48.362;10.994;2023-06-14T02:34:15;15.00;99.90
6164;DHT22;3114;48.362;10.994;2023-06-14T02:36:43;14.70;99.90
6164;DHT22;3114;48.362;10.994;2023-06-14T02:39:10;14.60;99.90
6164;DHT22;3114;48.362;10.994;2023-06-14T02:41:38;14.60;99.90
6164;DHT22;3114;48.362;10.994;2023-06-14T02:44:05;14.60;99.90
6164;DHT22;3114;48.362;10.994;2023-06-14T02:46:32;14.60;99.90
6164;DHT22;3114;48.362;10.994;2023-06-14T02:49:00;14.70;99.90
6164;DHT22;3114;48.362;10.994;2023-06-14T02:51:27;14.60;99.90
6164;DHT22;3114;48.362;10.994;2023-06-14T02:53:54;14.50;99.90
6164;DHT22;3114;48.362;10.994;2023-06-14T02:56:21;14.60;99.90
6164;DHT22;3114;48.362;10.994;2023-06-14T02:58:48;14.70;99.90
6164;DHT22;3114;48.362;10.994;2023-06-14T03:01:16;14.70;99.90
6164;DHT22;3114;48.362;10.994;2023-06-14T03:03:43;14.70;99.90
6164;DHT22;3114;48.362;10.994;2023-06-14T03:06:11;14.60;99.90
6164;DHT22;3114;48.362;10.994;2023-06-14T03:08:39;14.60;99.90
6164;DHT22;3114;48.362;10.994;2023-06-14T03:11:10;14.60;99.90
6164;DHT22;3114;48.362;10.994;2023-06-14T03:13:37;14.50;99.90
6164;DHT22;3114;48.362;10.994;2023-06-14T03:16:04;14.40;99.90
6164;DHT22;3114;48.362;10.994;2023-06-14T03:18:32;14.30;99.90
6164;DHT22;3114;48.362;10.994;2023-06-14T03:21:01;14.20;99.90
6164;DHT22;3114;48.362;10.994;2023-06-14T03:23:29;14.30;99.90
6164;DHT22;3114;48.362;10.994;2023-06-14T03:25:59;14.20;99.90
6164;DHT22;3114;48.362;10.994;2023-06-14T03:28:26;14.40;99.90
6164;DHT22;3114;48.362;10.994;2023-06-14T03:30:53;14.50;99.90
6164;DHT22;3114;48.362;10.994;2023-06-14T03:33:20;14.60;99.90
6164;DHT22;3114;48.362;10.994;2023-06-14T03:35:47;14.70;99.90
6164;DHT22;3114;48.362;10.994;2023-06-14T03:38:13;14.80;99.90
6164;DHT22;3114;48.362;10.994;2023-06-14T03:40:41;14.60;99.90
6164;DHT22;3114;48.362;10.994;2023-06-14T03:43:10;14.60;99.90
6164;DHT22;3114;48.362;10.994;2023-06-14T03:45:36;14.60;99.90
6164;DHT22;3114;48.362;10.994;2023-06-14T03:48:04;14.40;99.90
6164;DHT22;3114;48.362;10.994;2023-06-14T03:50:32;14.30;99.90
6164;DHT22;3114;48.362;10.994;2023-06-14T03:52:59;14.30;99.90
6164;DHT22;3114;48.362;10.994;2023-06-14T03:55:27;14.30;99.90
6164;DHT22;3114;48.362;10.994;2023-06-14T03:57:58;14.40;99.90
6164;DHT22;3114;48.362;10.994;2023-06-14T04:00:25;14.40;99.90
6164;DHT22;3114;48.362;10.994;2023-06-14T04:02:52;14.30;99.90
6164;DHT22;3114;48.362;10.994;2023-06-14T04:05:19;14.30;99.90
6164;DHT22;3114;48.362;10.994;2023-06-14T04:07:46;14.30;99.90
6164;DHT22;3114;48.362;10.994;2023-06-14T04:10:15;14.30;99.90
6164;DHT22;3114;48.362;10.994;2023-06-14T04:12:42;14.30;99.90
6164;DHT22;3114;48.362;10.994;2023-06-14T04:15:11;14.40;99.90
6164;DHT22;3114;48.362;10.994;2023-06-14T04:17:38;14.40;99.90
6164;DHT22;3114;48.362;10.994;2023-06-14T04:20:06;14.60;99.90
6164;DHT22;3114;48.362;10.994;2023-06-14T04:22:35;14.70;99.90
6164;DHT22;3114;48.362;10.994;2023-06-14T04:25:02;14.60;99.90
6164;DHT22;3114;48.362;10.994;2023-06-14T04:27:31;14.60;99.90
6164;DHT22;3114;48.362;10.994;2023-06-14T04:30:01;14.70;99.90
6164;DHT22;3114;48.362;10.994;2023-06-14T04:32:30;14.40;99.90
6164;DHT22;3114;48.362;10.994;2023-06-14T04:34:59;14.40;99.90
6164;DHT22;3114;48.362;10.994;2023-06-14T04:37:27;14.50;99.90
6164;DHT22;3114;48.362;10.994;2023-06-14T04:39:56;14.60;99.90
6164;DHT22;3114;48.362;10.994;2023-06-14T04:42:23;14.60;99.90
6164;DHT22;3114;48.362;10.994;2023-06-14T04:44:57;14.60;99.90
6164;DHT22;3114;48.362;10.994;2023-06-14T04:47:24;14.50;99.90
6164;DHT22;3114;48.362;10.994;2023-06-14T04:49:56;14.50;99.90
6164;DHT22;3114;48.362;10.994;2023-06-14T04:52:23;14.70;99.90
6164;DHT22;3114;48.362;10.994;2023-06-14T04:54:52;14.80;99.90
6164;DHT22;3114;48.362;10.994;2023-06-14T04:57:19;14.90;99.90
6164;DHT22;3114;48.362;10.994;2023-06-14T04:59:47;15.00;99.90
6164;DHT22;3114;48.362;10.994;2023-06-14T05:02:21;15.00;99.90
6164;DHT22;3114;48.362;10.994;2023-06-14T05:04:49;15.00;99.90
6164;DHT22;3114;48.362;10.994;2023-06-14T05:07:17;15.00;99.90
6164;DHT22;3114;48.362;10.994;2023-06-14T05:09:45;14.90;99.90
6164;DHT22;3114;48.362;10.994;2023-06-14T05:12:12;14.90;99.90
6164;DHT22;3114;48.362;10.994;2023-06-14T05:14:40;15.00;99.90
6164;DHT22;3114;48.362;10.994;2023-06-14T05:17:07;15.00;99.90
6164;DHT22;3114;48.362;10.994;2023-06-14T05:19:36;15.20;99.90
6164;DHT22;3114;48.362;10.994;2023-06-14T05:22:03;15.40;99.90
6164;DHT22;3114;48.362;10.994;2023-06-14T05:24:32;15.40;99.90
6164;DHT22;3114;48.362;10.994;2023-06-14T05:26:58;15.40;99.90
6164;DHT22;3114;48.362;10.994;2023-06-14T05:29:25;15.40;99.90
6164;DHT22;3114;48.362;10.994;2023-06-14T05:31:53;15.30;99.90
6164;DHT22;3114;48.362;10.994;2023-06-14T05:34:20;15.20;99.90
6164;DHT22;3114;48.362;10.994;2023-06-14T05:36:46;15.30;99.90
6164;DHT22;3114;48.362;10.994;2023-06-14T05:39:13;15.30;99.90
6164;DHT22;3114;48.362;10.994;2023-06-14T05:41:42;15.30;99.90
6164;DHT22;3114;48.362;10.994;2023-06-14T05:44:09;15.40;99.90
6164;DHT22;3114;48.362;10.994;2023-06-14T05:46:36;15.40;99.90
6164;DHT22;3114;48.362;10.994;2023-06-14T05:49:05;15.40;99.90
6164;DHT22;3114;48.362;10.994;2023-06-14T05:51:32;15.60;99.90
6164;DHT22;3114;48.362;10.994;2023-06-14T05:53:59;15.60;99.90
6164;DHT22;3114;48.362;10.994;2023-06-14T05:56:26;15.50;99.90
6164;DHT22;3114;48.362;10.994;2023-06-14T05:58:54;15.60;99.90
6164;DHT22;3114;48.362;10.994;2023-06-14T06:01:21;15.70;99.90
6164;DHT22;3114;48.362;10.994;2023-06-14T06:03:48;15.70;99.90
6164;DHT22;3114;48.362;10.994;2023-06-14T06:06:15;15.80;99.90
6164;DHT22;3114;48.362;10.994;2023-06-14T06:08:43;15.80;99.90
6164;DHT22;3114;48.362;10.994;2023-06-14T06:11:09;15.60;99.90
6164;DHT22;3114;48.362;10.994;2023-06-14T06:13:36;15.70;99.90
6164;DHT22;3114;48.362;10.994;2023-06-14T06:16:06;15.90;99.90
6164;DHT22;3114;48.362;10.994;2023-06-14T06:18:33;15.90;99.90
6164;DHT22;3114;48.362;10.994;2023-06-14T06:21:03;15.90;99.90
6164;DHT22;3114;48.362;10.994;2023-06-14T06:23:30;16.20;99.90
6164;DHT22;3114;48.362;10.994;2023-06-14T06:25:57;16.00;99.90
6164;DHT22;3114;48.362;10.994;2023-06-14T06:28:24;16.00;99.90
6164;DHT22;3114;48.362;10.994;2023-06-14T06:30:51;16.10;99.90
6164;DHT22;3114;48.362;10.994;2023-06-14T06:33:22;16.20;99.90
6164;DHT22;3114;48.362;10.994;2023-06-14T06:35:49;16.20;99.90
6164;DHT22;3114;48.362;10.994;2023-06-14T06:38:16;16.30;99.90
6164;DHT22;3114;48.362;10.994;2023-06-14T06:40:44;16.30;99.90
6164;DHT22;3114;48.362;10.994;2023-06-14T06:43:11;16.40;99.90
6164;DHT22;3114;48.362;10.994;2023-06-14T06:45:39;16.40;99.90
6164;DHT22;3114;48.362;10.994;2023-06-14T06:48:06;16.40;99.90
6164;DHT22;3114;48.362;10.994;2023-06-14T06:50:36;16.50;99.90
6164;DHT22;3114;48.362;10.994;2023-06-14T06:53:04;16.40;99.90
6164;DHT22;3114;48.362;10.994;2023-06-14T06:55:32;16.60;99.90
6164;DHT22;3114;48.362;10.994;2023-06-14T06:57:59;16.60;99.90
6164;DHT22;3114;48.362;10.994;2023-06-14T07:00:26;16.60;99.90
6164;DHT22;3114;48.362;10.994;2023-06-14T07:02:52;16.70;99.90
6164;DHT22;3114;48.362;10.994;2023-06-14T07:05:20;16.70;99.90
6164;DHT22;3114;48.362;10.994;2023-06-14T07:07:48;16.80;99.90
6164;DHT22;3114;48.362;10.994;2023-06-14T07:10:15;16.80;99.90
6164;DHT22;3114;48.362;10.994;2023-06-14T07:12:42;16.90;99.90
6164;DHT22;3114;48.362;10.994;2023-06-14T07:15:10;16.90;99.90
6164;DHT22;3114;48.362;10.994;2023-06-14T07:17:37;17.00;99.90
6164;DHT22;3114;48.362;10.994;2023-06-14T07:20:05;17.10;99.90
6164;DHT22;3114;48.362;10.994;2023-06-14T07:22:37;17.10;99.90
6164;DHT22;3114;48.362;10.994;2023-06-14T07:25:06;17.20;99.90
6164;DHT22;3114;48.362;10.994;2023-06-14T07:27:33;17.20;99.90
6164;DHT22;3114;48.362;10.994;2023-06-14T07:30:00;17.30;99.90
6164;DHT22;3114;48.362;10.994;2023-06-14T07:32:27;17.30;99.90
6164;DHT22;3114;48.362;10.994;2023-06-14T07:34:54;17.30;99.90
6164;DHT22;3114;48.362;10.994;2023-06-14T07:37:21;17.30;99.90
6164;DHT22;3114;48.362;10.994;2023-06-14T07:39:48;17.30;99.90
6164;DHT22;3114;48.362;10.994;2023-06-14T07:42:16;17.30;99.90
6164;DHT22;3114;48.362;10.994;2023-06-14T07:44:43;17.40;99.90
6164;DHT22;3114;48.362;10.994;2023-06-14T07:47:10;17.50;99.90
6164;DHT22;3114;48.362;10.994;2023-06-14T07:49:37;17.50;99.90
6164;DHT22;3114;48.362;10.994;2023-06-14T07:52:04;17.50;99.90
6164;DHT22;3114;48.362;10.994;2023-06-14T07:54:31;17.60;99.90
6164;DHT22;3114;48.362;10.994;2023-06-14T07:56:58;17.60;99.90
6164;DHT22;3114;48.362;10.994;2023-06-14T07:59:27;17.60;99.90
6164;DHT22;3114;48.362;10.994;2023-06-14T08:01:54;17.60;99.90
6164;DHT22;3114;48.362;10.994;2023-06-14T08:04:21;17.70;99.90
6164;DHT22;3114;48.362;10.994;2023-06-14T08:06:49;17.80;99.90
6164;DHT22;3114;48.362;10.994;2023-06-14T08:09:16;17.80;99.90
6164;DHT22;3114;48.362;10.994;2023-06-14T08:11:43;17.90;99.90
6164;DHT22;3114;48.362;10.994;2023-06-14T08:14:10;17.90;99.90
6164;DHT22;3114;48.362;10.994;2023-06-14T08:16:38;18.00;99.90
6164;DHT22;3114;48.362;10.994;2023-06-14T08:19:05;18.00;99.90
6164;DHT22;3114;48.362;10.994;2023-06-14T08:21:31;18.00;99.90
6164;DHT22;3114;48.362;10.994;2023-06-14T08:23:59;18.00;99.90
6164;DHT22;3114;48.362;10.994;2023-06-14T08:26:26;18.20;99.90
6164;DHT22;3114;48.362;10.994;2023-06-14T08:28:54;18.10;99.90
6164;DHT22;3114;48.362;10.994;2023-06-14T08:31:21;18.10;99.90
6164;DHT22;3114;48.362;10.994;2023-06-14T08:33:50;18.20;99.90
6164;DHT22;3114;48.362;10.994;2023-06-14T08:36:17;18.20;99.90
6164;DHT22;3114;48.362;10.994;2023-06-14T08:38:44;18.20;99.90
6164;DHT22;3114;48.362;10.994;2023-06-14T08:41:12;18.30;99.90
6164;DHT22;3114;48.362;10.994;2023-06-14T08:43:40;18.30;99.90
6164;DHT22;3114;48.362;10.994;2023-06-14T08:46:07;18.40;99.90
6164;DHT22;3114;48.362;10.994;2023-06-14T08:48:38;18.40;99.90
6164;DHT22;3114;48.362;10.994;2023-06-14T08:51:08;18.50;99.90
6164;DHT22;3114;48.362;10.994;2023-06-14T08:53:36;18.60;99.90
6164;DHT22;3114;48.362;10.994;2023-06-14T08:56:08;18.60;99.90
6164;DHT22;3114;48.362;10.994;2023-06-14T08:58:39;18.70;99.90
6164;DHT22;3114;48.362;10.994;2023-06-14T09:01:09;18.70;99.90
6164;DHT22;3114;48.362;10.994;2023-06-14T09:03:37;18.80;99.90
6164;DHT22;3114;48.362;10.994;2023-06-14T09:06:08;18.80;99.90
6164;DHT22;3114;48.362;10.994;2023-06-14T09:08:40;18.80;99.90
6164;DHT22;3114;48.362;10.994;2023-06-14T09:11:10;18.80;99.90
6164;DHT22;3114;48.362;10.994;2023-06-14T09:13:37;18.90;99.90
6164;DHT22;3114;48.362;10.994;2023-06-14T09:16:04;18.90;99.90
6164;DHT22;3114;48.362;10.994;2023-06-14T09:18:35;19.10;99.90
6164;DHT22;3114;48.362;10.994;2023-06-14T09:21:02;19.10;99.90
6164;DHT22;3114;48.362;10.994;2023-06-14T09:23:33;19.10;99.90
6164;DHT22;3114;48.362;10.994;2023-06-14T09:26:06;19.10;99.90
6164;DHT22;3114;48.362;10.994;2023-06-14T09:28:33;19.10;99.90
6164;DHT22;3114;48.362;10.994;2023-06-14T09:31:00;19.20;99.90
6164;DHT22;3114;48.362;10.994;2023-06-14T09:33:27;19.20;99.90
6164;DHT22;3114;48.362;10.994;2023-06-14T09:35:55;19.30;99.90
6164;DHT22;3114;48.362;10.994;2023-06-14T09:38:21;19.40;99.90
6164;DHT22;3114;48.362;10.994;2023-06-14T09:40:51;19.40;99.90
6164;DHT22;3114;48.362;10.994;2023-06-14T09:43:18;19.50;99.90
6164;DHT22;3114;48.362;10.994;2023-06-14T09:45:48;19.50;99.90
6164;DHT22;3114;48.362;10.994;2023-06-14T09:48:15;19.60;99.90
6164;DHT22;3114;48.362;10.994;2023-06-14T09:50:45;19.60;99.90
6164;DHT22;3114;48.362;10.994;2023-06-14T09:53:13;19.70;99.90
6164;DHT22;3114;48.362;10.994;2023-06-14T09:55:41;19.70;99.90
6164;DHT22;3114;48.362;10.994;2023-06-14T09:58:10;19.80;99.90
6164;DHT22;3114;48.362;10.994;2023-06-14T10:00:39;19.90;99.90
6164;DHT22;3114;48.362;10.994;2023-06-14T10:03:12;20.10;99.90
6164;DHT22;3114;48.362;10.994;2023-06-14T10:05:42;20.10;99.90
6164;DHT22;3114;48.362;10.994;2023-06-14T10:08:13;20.10;99.90
6164;DHT22;3114;48.362;10.994;2023-06-14T10:10:42;20.20;99.90
6164;DHT22;3114;48.362;10.994;2023-06-14T10:13:10;20.20;99.90
6164;DHT22;3114;48.362;10.994;2023-06-14T10:15:42;20.30;99.90
6164;DHT22;3114;48.362;10.994;2023-06-14T10:18:17;20.40;99.90
6164;DHT22;3114;48.362;10.994;2023-06-14T10:20:53;20.60;99.90
6164;DHT22;3114;48.362;10.994;2023-06-14T10:23:23;20.50;99.90
6164;DHT22;3114;48.362;10.994;2023-06-14T10:25:54;20.60;99.90
6164;DHT22;3114;48.362;10.994;2023-06-14T10:28:24;20.70;99.90
6164;DHT22;3114;48.362;10.994;2023-06-14T10:31:05;20.90;99.90
6164;DHT22;3114;48.362;10.994;2023-06-14T10:33:33;21.00;99.90
6164;DHT22;3114;48.362;10.994;2023-06-14T10:36:25;21.10;99.90
6164;DHT22;3114;48.362;10.994;2023-06-14T10:39:01;21.20;99.90
6164;DHT22;3114;48.362;10.994;2023-06-14T10:41:29;21.20;99.90
6164;DHT22;3114;48.362;10.994;2023-06-14T10:44:32;21.30;99.90
6164;DHT22;3114;48.362;10.994;2023-06-14T10:47:01;21.30;99.90
6164;DHT22;3114;48.362;10.994;2023-06-14T10:49:41;21.30;99.90
6164;DHT22;3114;48.362;10.994;2023-06-14T10:52:10;21.40;99.90
6164;DHT22;3114;48.362;10.994;2023-06-14T10:55:10;21.60;99.90
6164;DHT22;3114;48.362;10.994;2023-06-14T10:57:41;21.80;99.90
6164;DHT22;3114;48.362;10.994;2023-06-14T11:00:12;21.90;99.90
6164;DHT22;3114;48.362;10.994;2023-06-14T11:05:50;22.10;99.90
6164;DHT22;3114;48.362;10.994;2023-06-14T11:08:40;22.30;99.90
6164;DHT22;3114;48.362;10.994;2023-06-14T11:11:13;22.30;99.90
6164;DHT22;3114;48.362;10.994;2023-06-14T11:13:45;22.20;99.90
6164;DHT22;3114;48.362;10.994;2023-06-14T11:16:14;22.30;99.90
6164;DHT22;3114;48.362;10.994;2023-06-14T11:18:41;22.50;99.90
6164;DHT22;3114;48.362;10.994;2023-06-14T11:21:08;22.70;99.90
6164;DHT22;3114;48.362;10.994;2023-06-14T11:23:35;22.90;99.90
6164;DHT22;3114;48.362;10.994;2023-06-14T11:26:02;23.00;99.90
6164;DHT22;3114;48.362;10.994;2023-06-14T11:28:37;22.90;99.90
6164;DHT22;3114;48.362;10.994;2023-06-14T11:31:04;23.00;99.90
6164;DHT22;3114;48.362;10.994;2023-06-14T11:33:33;23.00;99.90
6164;DHT22;3114;48.362;10.994;2023-06-14T11:36:02;22.90;99.90
6164;DHT22;3114;48.362;10.994;2023-06-14T11:38:30;23.00;99.90
6164;DHT22;3114;48.362;10.994;2023-06-14T11:40:59;23.00;99.90
6164;DHT22;3114;48.362;10.994;2023-06-14T11:43:27;23.00;99.90
6164;DHT22;3114;48.362;10.994;2023-06-14T11:45:54;23.40;99.90
6164;DHT22;3114;48.362;10.994;2023-06-14T11:48:21;23.80;99.90
6164;DHT22;3114;48.362;10.994;2023-06-14T11:50:51;23.70;99.90
6164;DHT22;3114;48.362;10.994;2023-06-14T11:53:18;23.80;99.90
6164;DHT22;3114;48.362;10.994;2023-06-14T11:55:45;23.80;99.90
6164;DHT22;3114;48.362;10.994;2023-06-14T11:58:13;24.00;99.90
6164;DHT22;3114;48.362;10.994;2023-06-14T12:00:40;24.10;99.90
6164;DHT22;3114;48.362;10.994;2023-06-14T12:03:08;24.00;99.90
6164;DHT22;3114;48.362;10.994;2023-06-14T12:05:35;23.80;99.90
6164;DHT22;3114;48.362;10.994;2023-06-14T12:08:04;25.10;99.90
6164;DHT22;3114;48.362;10.994;2023-06-14T12:10:39;25.50;99.90
6164;DHT22;3114;48.362;10.994;2023-06-14T12:13:09;27.40;99.90
6164;DHT22;3114;48.362;10.994;2023-06-14T12:15:36;32.40;99.90
6164;DHT22;3114;48.362;10.994;2023-06-14T12:18:05;35.30;99.90
6164;DHT22;3114;48.362;10.994;2023-06-14T12:20:33;36.80;99.90
6164;DHT22;3114;48.362;10.994;2023-06-14T12:23:04;37.80;99.90
6164;DHT22;3114;48.362;10.994;2023-06-14T12:25:32;37.30;99.90
6164;DHT22;3114;48.362;10.994;2023-06-14T12:28:04;38.90;99.90
6164;DHT22;3114;48.362;10.994;2023-06-14T12:30:31;40.00;99.90
6164;DHT22;3114;48.362;10.994;2023-06-14T12:32:58;40.70;99.90
6164;DHT22;3114;48.362;10.994;2023-06-14T12:35:26;40.80;99.90
6164;DHT22;3114;48.362;10.994;2023-06-14T12:37:53;40.70;99.90
6164;DHT22;3114;48.362;10.994;2023-06-14T12:40:21;40.50;99.90
6164;DHT22;3114;48.362;10.994;2023-06-14T12:42:48;40.70;99.90
6164;DHT22;3114;48.362;10.994;2023-06-14T12:45:15;40.90;99.90
6164;DHT22;3114;48.362;10.994;2023-06-14T12:47:42;41.30;99.90
6164;DHT22;3114;48.362;10.994;2023-06-14T12:50:09;39.20;99.90
6164;DHT22;3114;48.362;10.994;2023-06-14T12:52:36;34.00;99.90
6164;DHT22;3114;48.362;10.994;2023-06-14T12:55:04;31.30;99.90
6164;DHT22;3114;48.362;10.994;2023-06-14T12:57:33;29.20;99.90
6164;DHT22;3114;48.362;10.994;2023-06-14T13:00:04;28.20;99.90
6164;DHT22;3114;48.362;10.994;2023-06-14T13:02:33;27.80;99.90
6164;DHT22;3114;48.362;10.994;2023-06-14T13:05:00;30.40;99.90
6164;DHT22;3114;48.362;10.994;2023-06-14T13:07:29;35.40;99.90
6164;DHT22;3114;48.362;10.994;2023-06-14T13:09:56;38.50;99.90
6164;DHT22;3114;48.362;10.994;2023-06-14T13:12:23;38.60;99.90
6164;DHT22;3114;48.362;10.994;2023-06-14T13:14:51;34.90;99.90
6164;DHT22;3114;48.362;10.994;2023-06-14T13:17:18;34.60;99.90
6164;DHT22;3114;48.362;10.994;2023-06-14T13:19:45;31.30;99.90
6164;DHT22;3114;48.362;10.994;2023-06-14T13:22:12;29.50;99.90
6164;DHT22;3114;48.362;10.994;2023-06-14T13:24:39;30.70;99.90
6164;DHT22;3114;48.362;10.994;2023-06-14T13:27:06;30.50;99.90
6164;DHT22;3114;48.362;10.994;2023-06-14T13:29:33;32.10;99.90
6164;DHT22;3114;48.362;10.994;2023-06-14T13:32:03;29.60;99.90
6164;DHT22;3114;48.362;10.994;2023-06-14T13:34:30;28.60;99.90
6164;DHT22;3114;48.362;10.994;2023-06-14T13:36:57;28.00;99.90
6164;DHT22;3114;48.362;10.994;2023-06-14T13:39:24;30.00;99.90
6164;DHT22;3114;48.362;10.994;2023-06-14T13:41:51;32.50;99.90
6164;DHT22;3114;48.362;10.994;2023-06-14T13:44:18;36.10;99.90
6164;DHT22;3114;48.362;10.994;2023-06-14T13:46:46;36.80;99.90
6164;DHT22;3114;48.362;10.994;2023-06-14T13:49:15;35.90;99.90
6164;DHT22;3114;48.362;10.994;2023-06-14T13:51:41;36.50;99.90
6164;DHT22;3114;48.362;10.994;2023-06-14T13:54:08;35.60;99.90
6164;DHT22;3114;48.362;10.994;2023-06-14T13:56:35;35.40;99.90
6164;DHT22;3114;48.362;10.994;2023-06-14T13:59:03;37.90;99.90
6164;DHT22;3114;48.362;10.994;2023-06-14T14:01:30;39.00;99.90
6164;DHT22;3114;48.362;10.994;2023-06-14T14:03:57;38.80;99.90
6164;DHT22;3114;48.362;10.994;2023-06-14T14:06:27;36.10;99.90
6164;DHT22;3114;48.362;10.994;2023-06-14T14:08:54;32.30;99.90
6164;DHT22;3114;48.362;10.994;2023-06-14T14:11:21;29.70;99.90
6164;DHT22;3114;48.362;10.994;2023-06-14T14:13:48;28.20;99.90
6164;DHT22;3114;48.362;10.994;2023-06-14T14:16:15;27.50;99.90
6164;DHT22;3114;48.362;10.994;2023-06-14T14:18:42;26.90;99.90
6164;DHT22;3114;48.362;10.994;2023-06-14T14:21:09;26.70;99.90
6164;DHT22;3114;48.362;10.994;2023-06-14T14:23:37;26.50;99.90
6164;DHT22;3114;48.362;10.994;2023-06-14T14:26:04;26.40;99.90
6164;DHT22;3114;48.362;10.994;2023-06-14T14:28:31;26.30;99.90
6164;DHT22;3114;48.362;10.994;2023-06-14T14:30:59;26.30;99.90
6164;DHT22;3114;48.362;10.994;2023-06-14T14:33:26;26.50;99.90
6164;DHT22;3114;48.362;10.994;2023-06-14T14:35:52;26.90;99.90
6164;DHT22;3114;48.362;10.994;2023-06-14T14:38:19;27.00;99.90
6164;DHT22;3114;48.362;10.994;2023-06-14T14:40:48;27.40;99.90
6164;DHT22;3114;48.362;10.994;2023-06-14T14:43:15;27.40;99.90
6164;DHT22;3114;48.362;10.994;2023-06-14T14:45:42;27.20;99.90
6164;DHT22;3114;48.362;10.994;2023-06-14T14:48:09;27.10;99.90
6164;DHT22;3114;48.362;10.994;2023-06-14T14:50:36;27.30;99.90
6164;DHT22;3114;48.362;10.994;2023-06-14T14:53:02;27.40;99.90
6164;DHT22;3114;48.362;10.994;2023-06-14T14:55:29;27.30;99.90
6164;DHT22;3114;48.362;10.994;2023-06-14T14:57:59;27.50;99.90
6164;DHT22;3114;48.362;10.994;2023-06-14T15:00:26;27.50;99.90
6164;DHT22;3114;48.362;10.994;2023-06-14T15:02:53;27.60;99.90
6164;DHT22;3114;48.362;10.994;2023-06-14T15:05:20;27.50;99.90
6164;DHT22;3114;48.362;10.994;2023-06-14T15:07:46;27.20;99.90
6164;DHT22;3114;48.362;10.994;2023-06-14T15:10:14;27.30;99.90
6164;DHT22;3114;48.362;10.994;2023-06-14T15:12:41;27.40;99.90
6164;DHT22;3114;48.362;10.994;2023-06-14T15:15:09;27.50;99.90
6164;DHT22;3114;48.362;10.994;2023-06-14T15:17:36;27.40;99.90
6164;DHT22;3114;48.362;10.994;2023-06-14T15:20:04;27.10;99.90
6164;DHT22;3114;48.362;10.994;2023-06-14T15:22:32;27.10;99.90
6164;DHT22;3114;48.362;10.994;2023-06-14T15:24:59;27.20;99.90
6164;DHT22;3114;48.362;10.994;2023-06-14T15:27:26;26.90;99.90
6164;DHT22;3114;48.362;10.994;2023-06-14T15:29:53;26.60;99.90
6164;DHT22;3114;48.362;10.994;2023-06-14T15:32:21;26.40;99.90
6164;DHT22;3114;48.362;10.994;2023-06-14T15:34:48;26.40;99.90
6164;DHT22;3114;48.362;10.994;2023-06-14T15:37:15;26.20;99.90
6164;DHT22;3114;48.362;10.994;2023-06-14T15:39:42;26.20;99.90
6164;DHT22;3114;48.362;10.994;2023-06-14T15:42:09;26.30;99.90
6164;DHT22;3114;48.362;10.994;2023-06-14T15:44:37;26.40;99.90
6164;DHT22;3114;48.362;10.994;2023-06-14T15:47:04;26.50;99.90
6164;DHT22;3114;48.362;10.994;2023-06-14T15:49:32;26.70;99.90
6164;DHT22;3114;48.362;10.994;2023-06-14T15:51:59;26.60;99.90
6164;DHT22;3114;48.362;10.994;2023-06-14T15:54:26;26.40;99.90